Terminal Aerodrome Forecast
Issued by NWS

Home | Current Version | Previous Version | Text Only | Print | Product List | Glossary On
Versions: 1 2 3 4 5 6 7 8 9 10 11 12 13 14 15 16
777
FTUS42 KMHX 290148 AAA
TAFPGV
TAF AMD
KPGV 290148Z 2902/2924 01007KT P6SM VCTS SCT040CB BKN120
      TEMPO 2902/2905 VRB15G25KT 3SM TSRA OVC025CB
     FM290500 VRB03KT P6SM BKN030
     FM290700 00000KT 4SM BR BKN007
     FM291300 01004KT P6SM BKN015
     FM291600 01006KT P6SM SCT040
      AMD LTD TO CLD VIS AND WIND=

USA.gov is the U.S. government's official web portal to all federal, state and local government web resources and services.